Barnard, Indiana
Current Conditions -  °F | °C
As of 5:35 AM on Thursday 18 Dec 2014 (Local Time) from K4I7 Reporting Station
Overcast Overcast  
Wind Chill: 19°   Ceiling: 1600
Heat Index: 25°   Visibility: 10mi
Dew Point: 18°   Wind: 5mph
Humidity: 74%   Direction: 90°E
Pressure: 30.24"   Gusts: NA
Location:  39.821°N, 86.7929°W
Report Text: K4I7 181035Z AUTO 09004KT 10SM OVC016 M04/M08 A3024 RMK AO2
Loading
Personal Weather Stations






























Interactive Weather Map New forecast layout! Learn more

10-Day Weather Forecast

Advertisements
Track Severe Weather on mobile